Latest Weather Observations for Wyndham Airport

IDD60801

Issued at 5:01 pm CST Saturday 5 September 2015 (issued every 30 minutes, with the page automatically refreshed every 10 minutes)

About weather observations | Map of weather stations | Latest weather observations for NT | Other Formats
Station Details ID: 001006 Name: WYNDHAM AERO Lat: -15.51 Lon: 128.15 Height: 3.8 m
Data from the previous 72 hours. | See also: Recent months at Wyndham Airport
Date/Time
CST
Temp
°C
App
Temp
°C
Dew
Point
Rel
Hum
%
Delta-T
°C
Wind Press
QNH
hPa
Press
MSL
hPa
Rain
since 9 am
mm
Dir
 
Spd
km/h
Gust
km/h
Spd
kts
Gust
kts
05/05:00pm 35.5 31.7 12.5 25 13.8 NNW 24 32 13 17 1011.6 1011.6 0.0
05/04:30pm 36.1 33.2 13.0 25 14.0 NW 20 28 11 15 1011.5 1011.5 0.0
05/04:00pm 37.0 34.2 13.1 24 14.6 NW 20 32 11 17 1011.7 1011.7 0.0
05/03:30pm 36.7 34.6 13.5 25 14.2 NW 17 20 9 11 1012.0 1012.0 0.0
05/03:00pm 36.5 33.9 13.3 25 14.2 NNW 19 26 10 14 1012.4 1012.4 0.0
05/02:30pm 37.3 34.7 10.6 20 15.7 ESE 15 26 8 14 1012.7 1012.7 0.0
05/02:00pm 36.6 35.0 11.4 22 15.0 NE 11 24 6 13 1013.2 1013.2 0.0
05/01:30pm 35.7 33.9 10.7 22 14.6 NNE 11 26 6 14 1013.9 1013.9 0.0
05/01:00pm 36.2 33.1 10.4 21 15.1 E 17 26 9 14 1014.6 1014.6 0.0
05/12:30pm 34.7 31.7 10.5 23 14.1 ENE 17 26 9 14 1015.4 1015.4 0.0
05/12:00pm 34.5 31.6 9.7 22 14.2 NE 15 35 8 19 1016.0 1016.0 0.0
05/11:30am 34.1 31.1 10.7 24 13.6 ENE 17 24 9 13 1016.6 1016.6 0.0
05/11:00am 33.4 31.1 11.9 27 12.7 NE 15 28 8 15 1016.9 1016.9 0.0
05/10:30am 31.9 30.0 10.6 27 12.2 E 11 17 6 9 1017.2 1017.2 0.0
05/10:00am 30.3 29.9 14.0 37 9.8 SSE 9 13 5 7 1017.4 1017.4 0.0
05/09:30am 29.0 29.2 14.8 42 8.6 SSE 7 11 4 6 1017.4 1017.4 0.0
05/09:00am 28.0 28.5 15.0 45 7.9 SSW 6 9 3 5 1017.3 1017.3 0.0
05/08:30am 26.7 28.4 15.1 49 7.0 CALM 0 0 0 0 1017.1 1017.1 0.0
05/08:00am 23.9 25.6 15.1 58 5.3 CALM 0 6 0 3 1016.7 1016.7 0.0
05/07:30am 21.7 21.8 14.4 63 4.3 N 7 9 4 5 1016.3 1016.3 0.0
05/07:00am 21.4 20.8 13.6 61 4.5 W 9 9 5 5 1015.9 1015.9 0.0
05/06:30am 22.1 23.2 13.5 58 5.0 CALM 0 0 0 0 1015.5 1015.5 0.0
05/06:00am 22.2 22.4 14.3 61 4.6 NE 6 9 3 5 1015.2 1015.2 0.0
05/05:30am 23.5 23.0 14.8 58 5.2 ESE 11 22 6 12 1014.7 1014.7 0.0
05/05:00am 23.8 22.2 15.0 57 5.3 ESE 17 20 9 11 1014.7 1014.7 0.0
05/04:30am 22.0 20.8 14.1 61 4.6 E 13 20 7 11 1014.6 1014.6 0.0
05/04:00am 22.8 24.6 15.6 64 4.3 CALM 0 0 0 0 1014.1 1014.1 0.0
05/03:30am 23.9 25.6 16.2 62 4.7 W 2 6 1 3 1014.1 1014.1 0.0
05/03:00am 22.8 23.4 13.0 54 5.6 W 2 9 1 5 1014.2 1014.2 0.0
05/02:30am 21.7 21.1 12.3 55 5.3 WNW 7 9 4 5 1014.4 1014.4 0.0
05/02:00am 21.9 22.7 12.5 55 5.3 CALM 0 0 0 0 1014.5 1014.5 0.0
05/01:30am 22.4 22.2 12.9 55 5.4 E 6 11 3 6 1014.8 1014.8 0.0
05/01:00am 22.8 22.8 12.4 52 5.9 N 4 7 2 4 1015.0 1015.0 0.0
05/12:30am 23.1 23.7 13.0 53 5.8 NE 2 7 1 4 1015.2 1015.2 0.0
05/12:00am 23.9 24.8 12.8 49 6.4 CALM 0 0 0 0 1015.5 1015.5 0.0
 
Date/Time
CST
Temp
°C
App
Temp
°C
Dew
Point
Rel
Hum
%
Delta-T
°C
Wind Press
QNH
hPa
Press
MSL
hPa
Rain
since 9 am
mm
Dir
 
Spd
km/h
Gust
km/h
Spd
kts
Gust
kts
04/11:30pm 24.4 25.0 13.0 49 6.6 E 2 7 1 4 1015.6 1015.6 0.0
04/11:00pm 25.4 25.0 14.2 50 6.6 E 9 13 5 7 1015.7 1015.7 0.0
04/10:30pm 25.6 26.2 13.1 46 7.3 ENE 2 9 1 5 1015.8 1015.8 0.0
04/10:00pm 26.8 26.8 12.4 40 8.3 E 4 11 2 6 1016.0 1016.0 0.0
04/09:30pm 28.1 29.1 13.2 39 8.8 CALM 0 0 0 0 1015.7 1015.7 0.0
04/09:00pm 28.8 28.4 13.1 38 9.3 SSW 7 9 4 5 1015.5 1015.5 0.0
04/08:30pm 29.9 27.5 12.8 35 10.1 SW 17 20 9 11 1015.0 1015.0 0.0
04/08:00pm 30.1 26.3 12.5 34 10.4 N 24 33 13 18 1014.5 1014.5 0.0
04/07:30pm 30.3 26.7 13.1 34 10.2 N 24 35 13 19 1013.9 1013.9 0.0
04/07:00pm 30.8 26.8 14.0 36 10.1 N 28 43 15 23 1013.5 1013.5 0.0
04/06:30pm 31.6 28.0 14.3 35 10.5 N 26 35 14 19 1013.3 1013.3 0.0
04/06:00pm 32.9 28.4 11.4 27 12.6 N 26 35 14 19 1013.0 1013.0 0.0
04/05:30pm 33.6 28.9 12.0 27 12.8 N 28 35 15 19 1012.8 1012.8 0.0
04/05:00pm 35.4 31.4 13.0 26 13.6 NNW 26 39 14 21 1012.5 1012.5 0.0
04/04:30pm 34.7 30.9 14.6 30 12.4 N 28 39 15 21 1012.3 1012.3 0.0
04/04:00pm 35.6 32.8 17.3 33 11.8 NNW 28 41 15 22 1012.4 1012.4 0.0
04/03:30pm 36.2 34.4 16.9 32 12.4 NNW 22 41 12 22 1012.6 1012.6 0.0
04/03:00pm 37.9 33.1 5.8 14 17.6 ENE 20 33 11 18 1013.0 1013.0 0.0
04/02:30pm 37.2 32.2 6.3 15 17.1 ENE 22 32 12 17 1013.1 1013.1 0.0
04/02:00pm 37.4 33.1 5.4 14 17.4 ENE 17 32 9 17 1013.7 1013.7 0.0
04/01:30pm 37.7 31.9 4.6 13 17.8 NE 24 33 13 18 1014.3 1014.3 0.0
04/01:00pm 36.7 31.9 4.9 14 17.1 E 19 32 10 17 1014.8 1014.8 0.0
04/12:30pm 35.7 30.2 4.1 14 16.7 NE 22 33 12 18 1015.3 1015.3 0.0
04/12:00pm 36.2 31.2 4.5 14 16.9 E 20 35 11 19 1015.8 1015.8 0.0
04/11:30am 34.6 30.1 4.2 15 16.0 E 17 26 9 14 1016.2 1016.2 0.0
04/11:00am 33.7 28.1 3.5 15 15.7 E 22 33 12 18 1016.6 1016.6 0.0
04/10:30am 33.4 27.6 2.3 14 15.8 E 22 35 12 19 1016.7 1016.7 0.0
04/10:00am 31.9 29.0 4.6 18 14.3 ESE 9 13 5 7 1016.7 1016.7 0.0
04/09:30am 29.6 28.0 8.1 26 11.7 SW 6 9 3 5 1016.7 1016.7 0.0
04/09:00am 27.7 26.3 9.0 31 10.3 WSW 6 7 3 4 1016.6 1016.6 0.0
04/08:30am 26.0 25.9 9.4 35 9.1 CALM 0 0 0 0 1016.4 1016.4 0.0
04/08:00am 23.2 23.2 9.9 43 7.2 CALM 0 0 0 0 1016.2 1016.2 0.0
04/07:30am 20.3 18.7 8.9 48 6.0 NW 7 7 4 4 1015.9 1015.9 0.0
04/07:00am 20.4 20.2 9.0 48 6.0 CALM 0 0 0 0 1015.7 1015.7 0.0
04/06:30am 20.1 19.8 8.8 48 5.9 CALM 0 0 0 0 1015.2 1015.2 0.0
04/06:00am 20.7 19.3 9.0 47 6.2 ESE 6 9 3 5 1015.0 1015.0 0.0
04/05:30am 21.6 21.4 9.2 45 6.6 CALM 0 0 0 0 1014.6 1014.6 0.0
04/05:00am 23.2 21.1 9.9 43 7.2 NNE 11 15 6 8 1014.4 1014.4 0.0
04/04:30am 23.2 22.1 9.9 43 7.2 WSW 6 9 3 5 1013.9 1013.9 0.0
04/04:00am 24.5 23.1 10.8 42 7.6 SSW 9 17 5 9 1013.4 1013.4 0.0
04/03:30am 22.8 22.6 10.6 46 6.7 NW 2 7 1 4 1013.6 1013.6 0.0
04/03:00am 22.2 22.0 10.4 47 6.5 W 2 6 1 3 1013.6 1013.6 0.0
04/02:30am 20.9 19.1 7.2 41 7.0 WSW 6 7 3 4 1013.8 1013.8 0.0
04/02:00am 21.1 19.2 7.7 42 6.9 NW 7 9 4 5 1014.0 1014.0 0.0
04/01:30am 20.2 19.6 7.2 43 6.6 CALM 0 0 0 0 1014.5 1014.5 0.0
04/01:00am 21.4 20.7 6.9 39 7.4 CALM 0 0 0 0 1014.8 1014.8 0.0
04/12:30am 21.8 21.0 8.3 42 7.1 ENE 2 13 1 7 1015.1 1015.1 0.0
04/12:00am 22.2 21.6 7.2 38 7.7 CALM 0 0 0 0 1015.2 1015.2 0.0
 
Date/Time
CST
Temp
°C
App
Temp
°C
Dew
Point
Rel
Hum
%
Delta-T
°C
Wind Press
QNH
hPa
Press
MSL
hPa
Rain
since 9 am
mm
Dir
 
Spd
km/h
Gust
km/h
Spd
kts
Gust
kts
03/11:30pm 23.4 22.9 7.9 37 8.2 CALM 0 0 0 0 1015.3 1015.3 0.0
03/11:00pm 24.2 23.5 6.9 33 9.0 CALM 0 0 0 0 1015.3 1015.3 0.0
03/10:30pm 27.6 27.7 10.3 34 9.7 CALM 0 0 0 0 1015.2 1015.2 0.0
03/10:00pm 27.3 27.0 8.7 31 10.1 CALM 0 0 0 0 1015.2 1015.2 0.0
03/09:30pm 26.8 25.0 7.8 30 10.2 SSE 7 13 4 7 1015.0 1015.0 0.0
03/09:00pm 28.4 26.7 7.6 27 11.2 WSW 6 7 3 4 1014.6 1014.6 0.0
03/08:30pm 29.6 28.0 8.1 26 11.7 SSW 6 9 3 5 1014.3 1014.3 0.0
03/08:00pm 31.1 28.0 8.8 25 12.4 N 15 19 8 10 1013.8 1013.8 0.0
03/07:30pm 31.6 28.5 10.3 27 12.2 N 17 20 9 11 1013.4 1013.4 0.0
03/07:00pm 32.2 28.5 10.3 26 12.6 N 20 26 11 14 1013.0 1013.0 0.0
03/06:30pm 33.5 29.8 9.5 23 13.7 N 19 26 10 14 1012.7 1012.7 0.0
03/06:00pm 34.7 30.9 9.9 22 14.3 N 20 26 11 14 1012.5 1012.5 0.0
03/05:30pm 36.0 32.5 7.1 17 16.1 N 15 19 8 10 1012.4 1012.4 0.0
03/05:00pm 36.9 32.7 1.6 11 18.1 E 13 26 7 14 1012.2 1012.2 0.0
03/04:30pm 37.1 32.9 1.8 11 18.2 ESE 13 20 7 11 1012.1 1012.1 0.0
03/04:00pm 36.8 33.1 0.2 10 18.3 NE 9 24 5 13 1012.3 1012.3 0.0
03/03:30pm 37.7 32.6 0.9 10 18.7 ESE 17 26 9 14 1012.5 1012.5 0.0
03/03:00pm 37.0 32.2 0.4 10 18.4 NE 15 24 8 13 1012.8 1012.8 0.0
03/02:30pm 37.1 32.2 1.8 11 18.2 ENE 17 24 9 13 1013.3 1013.3 0.0
03/02:00pm 36.6 30.3 1.4 11 17.9 E 24 35 13 19 1013.7 1013.7 0.0
03/01:30pm 37.0 31.5 1.7 11 18.1 ENE 20 35 11 19 1014.2 1014.2 0.0
03/01:00pm 36.8 30.7 2.8 12 17.7 E 24 35 13 19 1014.6 1014.6 0.0
03/12:30pm 35.4 29.9 1.7 12 17.1 E 20 30 11 16 1015.2 1015.2 0.0
03/12:00pm 35.3 29.6 2.7 13 16.8 ESE 22 35 12 19 1015.8 1015.8 0.0
03/11:30am 34.6 28.4 2.2 13 16.5 ESE 24 35 13 19 1016.3 1016.3 0.0
03/11:00am 34.0 27.0 1.7 13 16.3 ESE 28 39 15 21 1016.5 1016.5 0.0
03/10:30am 33.1 25.5 3.0 15 15.4 E 32 41 17 22 1016.4 1016.4 0.0
03/10:00am 32.6 25.4 5.2 18 14.5 ESE 32 43 17 23 1016.4 1016.4 0.0
03/09:30am 30.7 26.5 9.6 27 11.9 SE 22 30 12 16 1016.4 1016.4 0.0
03/09:00am 28.2 29.2 13.3 40 8.8 CALM 0 0 0 0 1016.4 1016.4 0.0
03/08:30am 25.5 25.8 14.6 51 6.5 SSW 6 7 3 4 1016.2 1016.2 0.0
03/08:00am 24.5 25.0 14.0 52 6.2 WSW 4 7 2 4 1015.7 1015.7 0.0
03/07:30am 23.0 24.2 13.8 56 5.4 CALM 0 0 0 0 1015.3 1015.3 0.0
03/07:00am 20.4 20.8 12.4 60 4.5 NW 2 6 1 3 1014.8 1014.8 0.0
03/06:30am 20.8 21.7 12.8 60 4.5 CALM 0 0 0 0 1014.4 1014.4 0.0
03/06:00am 21.9 21.0 13.8 60 4.7 E 11 17 6 9 1014.0 1014.0 0.0
03/05:30am 22.0 20.9 13.1 57 5.1 E 11 17 6 9 1013.9 1013.9 0.0
03/05:00am 22.2 23.3 13.5 57 5.0 CALM 0 0 0 0 1013.4 1013.4 0.0
03/04:30am 21.5 22.4 12.9 58 4.9 CALM 0 0 0 0 1013.6 1013.6 0.0
03/04:00am 21.5 22.6 13.4 60 4.7 CALM 0 0 0 0 1013.6 1013.6 0.0
03/03:30am 21.9 23.0 14.5 63 4.3 E 2 7 1 4 1013.6 1013.6 0.0
03/03:00am 22.2 22.0 14.8 63 4.4 ESE 9 11 5 6 1013.8 1013.8 0.0
03/02:30am 21.3 21.8 11.6 54 5.4 CALM 0 9 0 5 1014.0 1014.0 0.0
03/02:00am 22.6 23.3 13.4 56 5.3 SSE 2 6 1 3 1014.0 1014.0 0.0
03/01:30am 22.6 22.2 13.1 55 5.5 SE 7 11 4 6 1014.3 1014.3 0.0
03/01:00am 23.5 23.3 13.7 54 5.7 E 7 9 4 5 1014.8 1014.8 0.0
03/12:30am 23.7 22.7 13.3 52 6.0 ESE 11 11 6 6 1014.9 1014.9 0.0
03/12:00am 24.2 24.8 11.9 46 7.0 CALM 0 0 0 0 1014.7 1014.7 0.0
 
Date/Time
CST
Temp
°C
App
Temp
°C
Dew
Point
Rel
Hum
%
Delta-T
°C
Wind Press
QNH
hPa
Press
MSL
hPa
Rain
since 9 am
mm
Dir
 
Spd
km/h
Gust
km/h
Spd
kts
Gust
kts
02/11:30pm 25.1 24.4 12.0 44 7.5 E 7 13 4 7 1014.8 1014.8 0.0
02/11:00pm 27.2 26.7 12.0 38 8.8 NNW 6 7 3 4 1014.6 1014.6 0.0
02/10:30pm 27.9 26.8 11.9 37 9.2 NNE 9 19 5 10 1014.6 1014.6 0.0
02/10:00pm 28.5 27.8 12.0 36 9.6 S 7 11 4 6 1014.1 1014.1 0.0
02/09:30pm 30.1 27.8 11.6 32 10.7 N 15 20 8 11 1013.6 1013.6 0.0
02/09:00pm 30.0 26.3 11.5 32 10.7 N 22 32 12 17 1013.2 1013.2 0.0
02/08:30pm 29.9 26.0 10.9 31 10.9 NNE 22 30 12 16 1012.8 1012.8 0.0
02/08:00pm 30.5 25.6 9.9 28 11.7 N 26 37 14 20 1012.2 1012.2 0.0
02/07:30pm 30.9 26.2 10.8 29 11.6 N 26 33 14 18 1011.7 1011.7 0.0
02/07:00pm 31.8 27.0 11.6 29 11.8 N 28 35 15 19 1011.4 1011.4 0.0
02/06:55pm 32.1 27.6 11.3 28 12.1 N 26 35 14 19 1011.3 1011.3 0.0

Other Formats:

Comma delimited format used in spreadsheet applications
http://www.bom.gov.au/fwo/IDD60801/IDD60801.95214.axf

JavaScript Object Notation format (JSON) in row-major order
http://www.bom.gov.au/fwo/IDD60801/IDD60801.95214.json